createdAt,value
2022-10-08T00:01:32.220Z,34.18
2022-10-08T00:04:00.678Z,34.49
2022-10-08T00:06:31.033Z,34.46
2022-10-08T00:09:02.432Z,34.52
2022-10-08T00:11:34.587Z,34.40
2022-10-08T00:14:03.481Z,34.90
2022-10-08T00:16:33.462Z,34.80
2022-10-08T00:19:03.896Z,35.17
2022-10-08T00:21:34.138Z,35.36
2022-10-08T00:24:02.987Z,35.88
2022-10-08T00:26:32.432Z,35.85
2022-10-08T00:29:04.288Z,35.61
2022-10-08T00:31:34.188Z,35.75
2022-10-08T00:34:06.957Z,35.62
2022-10-08T00:36:36.569Z,35.54
2022-10-08T00:39:07.229Z,35.13
2022-10-08T00:41:38.339Z,35.13
2022-10-08T00:44:39.997Z,34.08
2022-10-08T00:47:16.093Z,34.41
2022-10-08T00:49:45.001Z,34.77
2022-10-08T00:52:13.096Z,35.01
2022-10-08T00:54:41.303Z,34.77
2022-10-08T00:57:10.189Z,34.73
2022-10-08T00:59:38.603Z,34.96
2022-10-08T01:02:08.488Z,35.02
2022-10-08T01:04:39.053Z,34.62
2022-10-08T01:07:14.158Z,34.49
2022-10-08T01:09:47.181Z,34.49
2022-10-08T01:12:24.063Z,34.37
2022-10-08T01:14:57.649Z,34.62
2022-10-08T01:17:31.520Z,34.32
2022-10-08T01:20:16.951Z,33.79
2022-10-08T01:22:58.533Z,33.94
2022-10-08T01:25:35.805Z,34.24
2022-10-08T01:28:12.708Z,34.18
2022-10-08T01:30:43.200Z,34.47
2022-10-08T01:33:14.141Z,34.39
2022-10-08T01:35:45.357Z,34.54
2022-10-08T01:38:16.515Z,34.63
2022-10-08T01:40:45.220Z,33.50
2022-10-08T01:43:17.148Z,34.46
2022-10-08T01:45:48.677Z,35.00
2022-10-08T01:48:17.825Z,34.01
2022-10-08T01:50:50.433Z,34.69
2022-10-08T01:53:19.116Z,34.88
2022-10-08T01:55:50.225Z,34.85
2022-10-08T01:58:22.157Z,35.11
2022-10-08T02:00:51.502Z,35.39
2022-10-08T02:03:19.622Z,35.57
2022-10-08T02:05:51.380Z,35.14
2022-10-08T02:08:20.044Z,35.43
2022-10-08T02:10:48.251Z,35.36
2022-10-08T02:13:16.637Z,35.21
2022-10-08T02:15:53.213Z,34.57
2022-10-08T02:18:24.602Z,34.59
2022-10-08T02:20:56.562Z,35.22
2022-10-08T02:23:26.788Z,35.13
2022-10-08T02:25:58.181Z,34.95
2022-10-08T02:28:32.018Z,34.78
2022-10-08T02:31:07.041Z,34.85
2022-10-08T02:33:38.950Z,35.23
2022-10-08T02:36:09.612Z,35.21
2022-10-08T02:38:39.600Z,35.17
2022-10-08T02:41:09.033Z,35.81
2022-10-08T02:43:39.744Z,35.53
2022-10-08T02:46:12.972Z,35.26
2022-10-08T02:48:42.530Z,35.83
2022-10-08T02:51:14.013Z,35.64
2022-10-08T02:53:43.100Z,35.96
2022-10-08T02:56:16.448Z,35.43
2022-10-08T02:58:45.886Z,36.10
2022-10-08T03:01:18.648Z,35.40
2022-10-08T03:03:50.417Z,35.57
2022-10-08T03:06:19.452Z,36.09
2022-10-08T03:08:50.205Z,35.89
2022-10-08T03:11:18.575Z,35.85
2022-10-08T03:13:48.234Z,35.73
2022-10-08T03:16:23.472Z,35.43
2022-10-08T03:18:52.392Z,35.94
2022-10-08T03:21:20.737Z,36.18
2022-10-08T03:23:49.094Z,36.13
2022-10-08T03:26:18.290Z,35.90
2022-10-08T03:28:46.831Z,36.20
2022-10-08T03:31:14.975Z,36.09
2022-10-08T03:33:44.615Z,36.03
2022-10-08T03:36:12.958Z,36.16
2022-10-08T03:38:41.060Z,36.17
2022-10-08T03:41:09.824Z,36.34
2022-10-08T03:43:38.091Z,36.36
2022-10-08T03:46:06.715Z,36.38
2022-10-08T03:48:35.455Z,36.30
2022-10-08T03:51:07.903Z,36.15
2022-10-08T03:53:38.233Z,36.19
2022-10-08T03:56:08.430Z,36.27
2022-10-08T03:58:36.856Z,36.58
2022-10-08T04:01:07.204Z,36.36
2022-10-08T04:03:36.094Z,36.49
2022-10-08T04:06:05.732Z,36.20
2022-10-08T04:08:34.817Z,36.45
2022-10-08T04:11:04.904Z,36.23
2022-10-08T04:13:33.488Z,36.36
2022-10-08T04:16:02.665Z,36.15
2022-10-08T04:18:31.352Z,36.41
2022-10-08T04:20:59.894Z,36.19
2022-10-08T04:23:30.244Z,35.90
2022-10-08T04:25:58.556Z,36.19
2022-10-08T04:28:26.749Z,36.59
2022-10-08T04:30:59.500Z,35.79
2022-10-08T04:33:28.543Z,36.28
2022-10-08T04:36:00.101Z,36.38
2022-10-08T04:38:30.225Z,36.22
2022-10-08T04:41:06.564Z,35.58
2022-10-08T04:43:35.195Z,36.32
2022-10-08T04:46:03.753Z,36.30
2022-10-08T04:48:32.091Z,36.23
2022-10-08T04:51:04.884Z,36.28
2022-10-08T04:53:36.994Z,36.18
2022-10-08T04:56:10.000Z,36.05
2022-10-08T04:58:38.435Z,36.53
2022-10-08T05:01:08.632Z,36.40
2022-10-08T05:03:38.376Z,36.36
2022-10-08T05:06:07.026Z,36.80
2022-10-08T05:08:37.285Z,36.55
2022-10-08T05:11:05.827Z,36.58
2022-10-08T05:13:34.571Z,36.45
2022-10-08T05:16:06.662Z,35.87
2022-10-08T05:18:35.440Z,36.28
2022-10-08T05:21:05.235Z,36.30
2022-10-08T05:23:33.802Z,36.34
2022-10-08T05:26:03.493Z,35.82
2022-10-08T05:28:32.108Z,35.66
2022-10-08T05:31:01.654Z,35.50
2022-10-08T05:33:30.093Z,35.05
2022-10-08T05:35:58.401Z,34.19
2022-10-08T05:38:30.261Z,33.08
2022-10-08T05:41:11.669Z,31.40
2022-10-08T05:43:40.295Z,30.71
2022-10-08T05:46:08.725Z,29.85
2022-10-08T05:48:37.157Z,28.75
2022-10-08T05:51:06.533Z,27.20
2022-10-08T05:53:36.819Z,25.66
2022-10-08T05:56:06.357Z,25.34
2022-10-08T05:58:37.535Z,24.21
2022-10-08T06:01:07.821Z,22.37
2022-10-08T06:03:36.145Z,22.58
2022-10-08T06:06:06.090Z,22.43
2022-10-08T06:08:35.240Z,22.56
2022-10-08T06:11:03.550Z,22.79
2022-10-08T06:13:32.308Z,22.74
2022-10-08T06:16:03.802Z,23.29
2022-10-08T06:18:32.806Z,22.69
2022-10-08T06:21:03.585Z,24.00
2022-10-08T06:23:33.547Z,24.83
2022-10-08T06:26:03.620Z,24.52
2022-10-08T06:28:31.977Z,24.85
2022-10-08T06:31:01.891Z,25.23
2022-10-08T06:33:30.891Z,25.38
2022-10-08T06:36:03.897Z,25.42
2022-10-08T06:38:32.298Z,25.46
2022-10-08T06:41:00.570Z,23.63
2022-10-08T06:43:28.969Z,22.32
2022-10-08T06:46:00.005Z,22.44
2022-10-08T06:48:29.469Z,23.37
2022-10-08T06:51:01.235Z,23.75
2022-10-08T06:53:29.654Z,24.42
2022-10-08T06:55:58.845Z,24.83
2022-10-08T06:58:26.984Z,25.51
2022-10-08T07:01:03.509Z,24.64
2022-10-08T07:03:33.316Z,24.81
2022-10-08T07:06:02.168Z,24.82
2022-10-08T07:08:30.733Z,25.22
2022-10-08T07:11:04.757Z,24.35
2022-10-08T07:13:33.815Z,24.92
2022-10-08T07:16:03.716Z,24.52
2022-10-08T07:18:34.589Z,24.26
2022-10-08T07:21:03.181Z,24.87
2022-10-08T07:23:32.275Z,24.93
2022-10-08T07:26:01.697Z,24.83
2022-10-08T07:28:32.115Z,24.46
2022-10-08T07:31:04.783Z,23.95
2022-10-08T07:33:34.591Z,23.57
2022-10-08T07:36:14.458Z,21.09
2022-10-08T07:38:43.145Z,20.36
2022-10-08T07:41:12.689Z,18.93
2022-10-08T07:43:41.469Z,16.75
2022-10-08T07:46:10.268Z,14.94
2022-10-08T07:48:40.082Z,14.01
2022-10-08T07:51:12.786Z,13.26
2022-10-08T07:53:41.860Z,12.71
2022-10-08T07:56:11.680Z,12.69
2022-10-08T07:58:40.530Z,12.29
2022-10-08T08:01:11.112Z,11.67
2022-10-08T08:03:40.518Z,10.91
2022-10-08T08:06:10.838Z,10.20
2022-10-08T08:08:40.915Z,9.04
2022-10-08T08:11:10.781Z,9.59
2022-10-08T08:13:41.287Z,9.37
2022-10-08T08:16:10.245Z,9.39
2022-10-08T08:18:41.226Z,10.89
2022-10-08T08:21:11.069Z,11.59
2022-10-08T08:23:41.005Z,12.66
2022-10-08T08:26:11.361Z,13.43
2022-10-08T08:28:39.652Z,12.81
2022-10-08T08:31:10.361Z,11.90
2022-10-08T08:33:40.004Z,11.23
2022-10-08T08:36:08.796Z,10.25
2022-10-08T08:38:37.882Z,9.67
2022-10-08T08:41:20.438Z,8.94
2022-10-08T08:43:49.328Z,9.09
2022-10-08T08:46:20.744Z,8.97
2022-10-08T08:48:53.134Z,8.53
2022-10-08T08:51:21.288Z,9.74
2022-10-08T08:53:49.568Z,10.21
2022-10-08T08:56:21.216Z,11.00
2022-10-08T08:58:52.797Z,12.45
2022-10-08T09:01:26.184Z,13.51
2022-10-08T09:03:58.210Z,14.49
2022-10-08T09:06:27.113Z,15.58
2022-10-08T09:08:57.974Z,15.85
2022-10-08T09:11:26.626Z,16.72
2022-10-08T09:13:57.758Z,17.27
2022-10-08T09:16:28.551Z,17.58
2022-10-08T09:18:58.095Z,17.45
2022-10-08T09:21:26.664Z,18.31
2022-10-08T09:23:54.851Z,17.92
2022-10-08T09:26:24.393Z,17.79
2022-10-08T09:28:54.767Z,17.67
2022-10-08T09:31:26.682Z,17.42
2022-10-08T09:33:59.554Z,17.47
2022-10-08T09:36:32.843Z,17.26
2022-10-08T09:39:01.750Z,17.47
2022-10-08T09:41:30.379Z,17.81
2022-10-08T09:44:20.222Z,18.03
2022-10-08T09:46:49.470Z,19.12
2022-10-08T09:49:32.364Z,19.41
2022-10-08T09:52:02.978Z,20.10
2022-10-08T09:54:36.440Z,20.27
2022-10-08T09:57:05.013Z,20.88
2022-10-08T09:59:39.637Z,20.24
2022-10-08T10:02:29.262Z,19.80
2022-10-08T10:05:00.092Z,20.84
2022-10-08T10:07:38.664Z,21.15
2022-10-08T10:10:13.699Z,21.24
2022-10-08T10:12:45.231Z,21.38
2022-10-08T10:15:16.703Z,21.22
2022-10-08T10:17:48.360Z,21.23
2022-10-08T10:20:22.078Z,21.28
2022-10-08T10:22:53.827Z,21.38
2022-10-08T10:25:30.672Z,21.41
2022-10-08T10:28:01.839Z,21.01
2022-10-08T10:30:30.544Z,21.30
2022-10-08T10:33:01.895Z,20.93
2022-10-08T10:35:32.806Z,20.94
2022-10-08T10:38:02.643Z,19.30
2022-10-08T10:40:38.260Z,19.36
2022-10-08T10:43:21.904Z,17.31
2022-10-08T10:45:55.236Z,17.17
2022-10-08T10:48:23.642Z,15.89
2022-10-08T10:51:09.834Z,15.32
2022-10-08T10:53:44.691Z,16.75
2022-10-08T10:56:15.884Z,16.94
2022-10-08T10:59:06.899Z,16.93
2022-10-08T11:01:41.232Z,17.54
2022-10-08T11:04:11.701Z,18.24
2022-10-08T11:07:02.094Z,18.11
2022-10-08T11:09:36.927Z,19.14
2022-10-08T11:12:16.293Z,19.09
2022-10-08T11:14:53.566Z,19.14
2022-10-08T11:17:33.208Z,18.94
2022-10-08T11:20:17.735Z,19.06
2022-10-08T11:22:52.199Z,18.91
2022-10-08T11:25:25.377Z,17.02
2022-10-08T11:28:03.855Z,15.28
2022-10-08T11:30:37.846Z,15.73
2022-10-08T11:33:06.837Z,16.01
2022-10-08T11:35:41.008Z,15.95
2022-10-08T11:38:16.255Z,16.17
2022-10-08T11:40:48.533Z,16.40
2022-10-08T11:43:23.903Z,16.57
2022-10-08T11:46:14.632Z,17.40
2022-10-08T11:48:42.814Z,18.45
2022-10-08T11:51:31.919Z,18.22
2022-10-08T11:54:19.460Z,18.96
2022-10-08T11:56:48.918Z,19.63
2022-10-08T11:59:31.144Z,19.57
2022-10-08T12:02:01.972Z,19.91
2022-10-08T12:04:33.150Z,19.89
2022-10-08T12:07:02.711Z,18.67
2022-10-08T12:10:25.777Z,19.42
2022-10-08T12:13:07.201Z,19.88
2022-10-08T12:16:05.054Z,19.58
2022-10-08T12:18:43.884Z,19.64
2022-10-08T12:21:54.543Z,20.28
2022-10-08T12:24:53.449Z,20.63
2022-10-08T12:27:28.813Z,21.24
2022-10-08T12:29:58.688Z,21.73
2022-10-08T12:32:27.974Z,22.27
2022-10-08T12:34:56.434Z,22.53
2022-10-08T12:37:57.277Z,22.05
2022-10-08T12:40:33.740Z,21.99
2022-10-08T12:43:14.020Z,22.13
2022-10-08T12:45:48.973Z,22.27
2022-10-08T12:48:24.036Z,22.43
2022-10-08T12:50:59.472Z,22.75
2022-10-08T12:53:27.754Z,23.80
2022-10-08T12:55:58.027Z,23.29
2022-10-08T12:58:30.760Z,23.27
2022-10-08T13:01:01.843Z,22.90
2022-10-08T13:03:30.146Z,22.98
2022-10-08T13:05:58.304Z,23.25
2022-10-08T13:08:35.046Z,22.56
2022-10-08T13:11:05.386Z,23.01
2022-10-08T13:13:42.435Z,23.17
2022-10-08T13:16:12.865Z,23.07
2022-10-08T13:18:43.552Z,23.11
2022-10-08T13:21:39.095Z,22.89
2022-10-08T13:24:33.710Z,22.55
2022-10-08T13:27:01.837Z,23.41
2022-10-08T13:29:33.764Z,22.77
2022-10-08T13:32:05.081Z,23.17
2022-10-08T13:34:35.473Z,23.19
2022-10-08T13:37:05.799Z,23.56
2022-10-08T13:39:37.916Z,23.64
2022-10-08T13:42:08.354Z,23.91
2022-10-08T13:44:39.513Z,24.10
2022-10-08T13:47:10.022Z,24.29
2022-10-08T13:49:38.418Z,24.16
2022-10-08T13:52:06.544Z,24.34
2022-10-08T13:54:37.207Z,24.33
2022-10-08T13:57:08.651Z,24.88
2022-10-08T13:59:38.506Z,24.55
2022-10-08T14:02:07.291Z,24.72
2022-10-08T14:04:35.691Z,24.62
2022-10-08T14:07:04.259Z,24.95
2022-10-08T14:09:32.865Z,24.88
2022-10-08T14:12:05.192Z,25.12
2022-10-08T14:14:33.565Z,25.42
2022-10-08T14:17:03.116Z,25.09
2022-10-08T14:19:31.427Z,25.28
2022-10-08T14:21:59.582Z,25.31
2022-10-08T14:24:27.981Z,25.86
2022-10-08T14:26:56.304Z,25.49
2022-10-08T14:29:24.624Z,25.74
2022-10-08T14:31:52.813Z,25.69
2022-10-08T14:34:22.616Z,25.75
2022-10-08T14:36:55.228Z,25.62
2022-10-08T14:39:23.862Z,25.70
2022-10-08T14:41:51.985Z,25.65
2022-10-08T14:44:22.562Z,25.90
2022-10-08T14:46:53.029Z,25.63
2022-10-08T14:49:24.055Z,25.59
2022-10-08T14:51:52.419Z,25.93
2022-10-08T14:54:21.119Z,26.11
2022-10-08T14:56:49.373Z,26.33
2022-10-08T14:59:18.411Z,26.54
2022-10-08T15:01:46.870Z,26.50
2022-10-08T15:04:15.793Z,26.78
2022-10-08T15:06:45.786Z,26.39
2022-10-08T15:09:15.544Z,26.59
2022-10-08T15:11:43.717Z,26.39
2022-10-08T15:14:12.056Z,26.73
2022-10-08T15:16:40.832Z,26.69
2022-10-08T15:19:09.470Z,26.87
2022-10-08T15:21:38.073Z,27.03
2022-10-08T15:24:08.096Z,27.00
2022-10-08T15:26:36.468Z,27.09
2022-10-08T15:29:04.889Z,27.27
2022-10-08T15:31:33.102Z,27.16
2022-10-08T15:34:01.860Z,27.11
2022-10-08T15:36:32.206Z,27.33
2022-10-08T15:39:01.524Z,27.20
2022-10-08T15:41:33.540Z,27.47
2022-10-08T15:44:09.914Z,27.19
2022-10-08T15:46:38.261Z,27.41
2022-10-08T15:49:07.080Z,27.45
2022-10-08T15:51:35.353Z,27.72
2022-10-08T15:54:04.435Z,27.85
2022-10-08T15:56:34.449Z,28.05
2022-10-08T15:59:02.986Z,28.06
2022-10-08T16:01:31.222Z,28.78
2022-10-08T16:04:00.250Z,28.49
2022-10-08T16:06:30.571Z,28.75
2022-10-08T16:08:59.239Z,28.84
2022-10-08T16:11:29.417Z,28.90
2022-10-08T16:14:00.903Z,28.60
2022-10-08T16:16:30.053Z,28.85
2022-10-08T16:18:59.867Z,28.77
2022-10-08T16:21:29.042Z,28.85
2022-10-08T16:23:57.893Z,29.10
2022-10-08T16:26:26.213Z,29.60
2022-10-08T16:28:56.156Z,29.27
2022-10-08T16:31:27.771Z,29.26
2022-10-08T16:33:56.290Z,28.63
2022-10-08T16:36:24.974Z,29.58
2022-10-08T16:38:53.695Z,30.38
2022-10-08T16:41:23.692Z,29.88
2022-10-08T16:43:53.213Z,30.57
2022-10-08T16:46:24.580Z,30.39
2022-10-08T16:48:55.385Z,30.18
2022-10-08T16:51:24.386Z,30.38
2022-10-08T16:53:54.318Z,30.87
2022-10-08T16:56:24.002Z,30.43
2022-10-08T16:58:53.167Z,30.98
2022-10-08T17:01:21.702Z,30.78
2022-10-08T17:03:50.247Z,31.20
2022-10-08T17:06:21.714Z,30.42
2022-10-08T17:08:51.397Z,31.04
2022-10-08T17:11:20.783Z,31.19
2022-10-08T17:13:50.813Z,31.18
2022-10-08T17:16:21.015Z,31.41
2022-10-08T17:18:51.719Z,30.62
2022-10-08T17:21:21.450Z,31.12
2022-10-08T17:23:50.381Z,31.30
2022-10-08T17:26:20.636Z,31.33
2022-10-08T17:28:50.276Z,31.31
2022-10-08T17:31:20.596Z,31.07
2022-10-08T17:33:49.099Z,31.08
2022-10-08T17:36:19.401Z,30.92
2022-10-08T17:38:50.007Z,31.06
2022-10-08T17:41:20.175Z,31.28
2022-10-08T17:43:49.196Z,31.25
2022-10-08T17:46:19.242Z,31.39
2022-10-08T17:48:48.104Z,31.41
2022-10-08T17:51:17.714Z,31.36
2022-10-08T17:53:46.288Z,31.33
2022-10-08T17:56:16.963Z,31.17
2022-10-08T17:58:45.040Z,31.48
2022-10-08T18:01:15.210Z,31.15
2022-10-08T18:03:44.830Z,31.37
2022-10-08T18:06:13.576Z,31.51
2022-10-08T18:08:41.825Z,31.25
2022-10-08T18:11:12.170Z,31.06
2022-10-08T18:13:41.700Z,31.31
2022-10-08T18:16:12.352Z,31.07
2022-10-08T18:18:40.882Z,31.67
2022-10-08T18:21:10.023Z,31.74
2022-10-08T18:23:38.133Z,31.54
2022-10-08T18:26:11.015Z,30.85
2022-10-08T18:28:39.573Z,31.43
2022-10-08T18:31:10.988Z,31.24
2022-10-08T18:33:40.725Z,31.34
2022-10-08T18:36:11.024Z,31.17
2022-10-08T18:38:39.690Z,31.55
2022-10-08T18:41:12.230Z,31.23
2022-10-08T18:43:40.621Z,31.83
2022-10-08T18:46:10.563Z,31.86
2022-10-08T18:48:39.120Z,32.07
2022-10-08T18:51:09.322Z,32.06
2022-10-08T18:53:39.392Z,31.64
2022-10-08T18:56:10.422Z,31.48
2022-10-08T18:58:38.635Z,31.90
2022-10-08T19:01:07.998Z,31.92
2022-10-08T19:03:37.586Z,31.49
2022-10-08T19:06:08.053Z,31.45
2022-10-08T19:08:36.237Z,31.54
2022-10-08T19:11:10.497Z,30.85
2022-10-08T19:13:38.975Z,31.91
2022-10-08T19:16:13.313Z,31.58
2022-10-08T19:18:44.306Z,31.35
2022-10-08T19:21:14.221Z,31.30
2022-10-08T19:23:43.250Z,31.09
2022-10-08T19:26:11.517Z,31.34
2022-10-08T19:28:40.373Z,31.13
2022-10-08T19:31:16.426Z,30.54
2022-10-08T19:33:49.321Z,30.75
2022-10-08T19:36:17.905Z,31.73
2022-10-08T19:38:46.372Z,31.33
2022-10-08T19:41:14.802Z,31.71
2022-10-08T19:43:44.070Z,31.79
2022-10-08T19:46:12.550Z,31.86
2022-10-08T19:48:40.736Z,31.33
2022-10-08T19:51:11.923Z,31.31
2022-10-08T19:53:40.112Z,31.36
2022-10-08T19:56:09.848Z,31.66
2022-10-08T19:58:38.836Z,31.90
2022-10-08T20:01:10.166Z,31.53
2022-10-08T20:03:39.252Z,31.91
2022-10-08T20:06:10.799Z,31.81
2022-10-08T20:08:39.156Z,32.17
2022-10-08T20:11:09.864Z,31.77
2022-10-08T20:13:38.171Z,32.11
2022-10-08T20:16:07.526Z,32.32
2022-10-08T20:18:36.222Z,32.12
2022-10-08T20:21:06.620Z,32.17
2022-10-08T20:23:36.935Z,32.24
2022-10-08T20:26:10.307Z,31.53
2022-10-08T20:28:38.690Z,32.19
2022-10-08T20:31:12.130Z,32.06
2022-10-08T20:33:41.647Z,32.41
2022-10-08T20:36:10.835Z,32.58
2022-10-08T20:38:40.633Z,32.35
2022-10-08T20:41:09.474Z,32.75
2022-10-08T20:43:39.151Z,32.30
2022-10-08T20:46:08.949Z,32.82
2022-10-08T20:48:38.286Z,32.75
2022-10-08T20:51:08.645Z,32.36
2022-10-08T20:53:36.936Z,32.69
2022-10-08T20:56:08.400Z,32.22
2022-10-08T20:58:37.507Z,32.46
2022-10-08T21:01:08.475Z,32.70
2022-10-08T21:03:37.211Z,32.74
2022-10-08T21:06:07.469Z,33.21
2022-10-08T21:08:38.026Z,32.55
2022-10-08T21:11:13.215Z,32.64
2022-10-08T21:13:41.675Z,32.78
2022-10-08T21:16:12.431Z,32.90
2022-10-08T21:18:40.755Z,33.05
2022-10-08T21:21:10.203Z,32.66
2022-10-08T21:23:39.025Z,32.73
2022-10-08T21:26:10.657Z,32.96
2022-10-08T21:28:39.172Z,32.80
2022-10-08T21:31:08.412Z,32.75
2022-10-08T21:33:37.310Z,33.00
2022-10-08T21:36:05.838Z,33.14
2022-10-08T21:38:36.398Z,32.98
2022-10-08T21:41:12.091Z,32.69
2022-10-08T21:43:43.278Z,32.31
2022-10-08T21:46:13.513Z,32.38
2022-10-08T21:48:42.153Z,32.51
2022-10-08T21:51:11.425Z,32.10
2022-10-08T21:53:41.171Z,31.62
2022-10-08T21:56:11.715Z,31.68
2022-10-08T21:58:43.787Z,31.05
2022-10-08T22:01:21.905Z,30.43
2022-10-08T22:03:50.393Z,30.79
2022-10-08T22:06:18.799Z,30.66
2022-10-08T22:08:46.933Z,30.10
2022-10-08T22:11:15.017Z,30.48
2022-10-08T22:13:44.957Z,30.05
2022-10-08T22:16:14.656Z,30.12
2022-10-08T22:18:43.600Z,30.05
2022-10-08T22:21:14.616Z,29.72
2022-10-08T22:23:43.026Z,29.80
2022-10-08T22:26:12.997Z,28.78
2022-10-08T22:28:42.235Z,29.11
2022-10-08T22:31:13.294Z,28.66
2022-10-08T22:33:41.841Z,29.36
2022-10-08T22:36:11.780Z,29.13
2022-10-08T22:38:41.147Z,28.61
2022-10-08T22:41:11.707Z,28.18
2022-10-08T22:43:41.247Z,27.99
2022-10-08T22:46:12.776Z,28.29
2022-10-08T22:48:41.584Z,28.44
2022-10-08T22:51:12.555Z,28.15
2022-10-08T22:53:40.802Z,27.99
2022-10-08T22:56:12.562Z,27.72
2022-10-08T22:58:40.706Z,28.02
2022-10-08T23:01:11.128Z,28.55
2022-10-08T23:03:41.526Z,28.63
2022-10-08T23:06:14.092Z,28.60
2022-10-08T23:08:42.774Z,28.65
2022-10-08T23:11:11.308Z,29.04
2022-10-08T23:13:39.525Z,29.10
2022-10-08T23:16:09.916Z,29.13
2022-10-08T23:18:41.400Z,29.27
2022-10-08T23:21:12.428Z,28.24
2022-10-08T23:23:41.024Z,29.56
2022-10-08T23:26:09.862Z,29.81
2022-10-08T23:28:39.066Z,29.71
2022-10-08T23:31:08.716Z,29.61
2022-10-08T23:33:38.505Z,29.73
2022-10-08T23:36:10.178Z,29.33
2022-10-08T23:38:38.534Z,29.80
2022-10-08T23:41:08.406Z,29.76
2022-10-08T23:43:37.913Z,29.55
2022-10-08T23:46:07.060Z,29.88
2022-10-08T23:48:35.675Z,29.46
2022-10-08T23:51:04.624Z,29.45
2022-10-08T23:53:34.738Z,29.35
2022-10-08T23:56:03.134Z,29.74
2022-10-08T23:58:31.574Z,29.89
